Historyczne dane pomiarowe

Dodano dane terminowe – wersja testowa.

Dane z okresu 1951-2019

Wersja bazy: 1.34 [2019-03-16, lista zmian], aktualizacja planowana na 2019-04-15

Dane meteo z obszaru Polski uzyskane na podstawie danych udostępnionych przez Instytut Meteorologii i Gospodarki Wodnej – Państwowy Instytut Badawczy.

 

Wybierz Datę:    

       

TemperaturaWilgotnośćZachmurzenieWiatrCiśnienieWidzialnośćZjawiska
 Data    tng td wb rh cc ccl cl cm ch dir g1 g2 mslp ppp      
1999-07-14 00:00:00 19.0--- 17.3 17.990wxwxwxwx2wx--1001.2 991.4 0.0---wx
1999-07-14 01:00:00 18.6--- 17.5 17.993wxwxwx1wx--1001.0 991.2----wx
1999-07-14 02:00:00 18.2--- 17.3 17.694wxwxwxwxwx1wx--1000.5 990.7----wx
1999-07-14 03:00:00 18.0--- 17.1 17.494wxwxwxwxwx1wx--1000.3 990.5----wx
1999-07-14 04:00:00 18.6--- 17.5 17.993wxwxwx2wx--1000.3 990.5----wx
1999-07-14 05:00:00 19.0--- 17.5 18.091wxwxwx1wx--1000.3 990.5----wx
1999-07-14 06:00:00 19.8--- 17.7 18.487wxwxwx3wx--1000.3 990.6 0.0---wx
1999-07-14 07:00:00 20.7--- 18.3 19.186wxwxwx3wx--1000.0 990.3----wx
1999-07-14 08:00:00 21.6--- 18.1 19.381wxwxwx2wx-- 999.7 990.0----wx
1999-07-14 09:00:00 23.7--- 18.6 20.373wxwxwxwx3wx-- 999.7 990.1----wx
1999-07-14 10:00:00 24.1--- 18.6 20.471wxwxwxwx3wx-- 999.7 990.1----wx
1999-07-14 11:00:00 24.3--- 18.0 20.168wxwxwx5wx-- 999.3 989.7----wx
1999-07-14 12:00:00 25.3--- 16.9 19.860wxwxwx7wx-- 999.2 989.6 0.0---wx
1999-07-14 13:00:00 25.1--- 17.2 19.962wxwxwxwx7wx-- 999.5 989.9----wx
1999-07-14 14:00:00 23.4--- 17.3 19.469wxwxwx5wx-- 999.7 990.1----wx
1999-07-14 15:00:00 19.4--- 18.3 18.794wxwxwx5wx--1001.0 991.2----wx
1999-07-14 16:00:00 19.9--- 18.5 19.092wxwxwxwx3wx--1001.3 991.5----wxw1
1999-07-14 17:00:00 19.3--- 18.4 18.794wxwxwxwx1wx--1001.9 992.1----wxw1
1999-07-14 18:00:00 19.6--- 18.4 18.893wxwxwxwx3wx--1002.6 992.8 5.3---wxw1
1999-07-14 19:00:00 18.2--- 17.0 17.492wxwxwxwx3wx--1003.1 993.3----wxw1
1999-07-14 20:00:00 17.7--- 16.4 16.992wxwxwx3wx--1003.9 994.0----wx
1999-07-14 21:00:00 17.3--- 16.0 16.592wxwxwx4wx--1004.3 994.4----wxw1
1999-07-14 22:00:00 17.0--- 15.7 16.292wxwxwx4wx--1004.8 994.9----wx
1999-07-14 23:00:00 16.6--- 14.8 15.589wxwxwx5wx--1005.3 995.4----wx

 

Źródłem pochodzenia danych jest Instytut Meteorologii i Gospodarki Wodnej – Państwowy Instytut Badawczy. Dane Instytutu Meteorologii i Gospodarki Wodnej – Państwowego Instytutu Badawczego zostały przetworzone.

Dane źródłowe można odnaleźć na stronie https://dane.imgw.pl